sensor_id;sensor_type;location;lat;lon;timestamp;temperature;humidity
14142;DHT22;7151;52.246;4.820;2023-08-17T00:01:34;24.40;66.50
14142;DHT22;7151;52.246;4.820;2023-08-17T00:04:00;24.30;66.50
14142;DHT22;7151;52.246;4.820;2023-08-17T00:06:25;24.30;66.70
14142;DHT22;7151;52.246;4.820;2023-08-17T00:08:51;24.30;66.70
14142;DHT22;7151;52.246;4.820;2023-08-17T00:11:16;24.30;66.80
14142;DHT22;7151;52.246;4.820;2023-08-17T00:13:42;24.30;66.80
14142;DHT22;7151;52.246;4.820;2023-08-17T00:16:08;24.20;66.80
14142;DHT22;7151;52.246;4.820;2023-08-17T00:18:33;24.20;66.80
14142;DHT22;7151;52.246;4.820;2023-08-17T00:20:59;24.20;66.80
14142;DHT22;7151;52.246;4.820;2023-08-17T00:23:24;24.20;66.80
14142;DHT22;7151;52.246;4.820;2023-08-17T00:25:50;24.20;66.80
14142;DHT22;7151;52.246;4.820;2023-08-17T00:28:16;24.10;66.80
14142;DHT22;7151;52.246;4.820;2023-08-17T00:30:41;24.20;66.80
14142;DHT22;7151;52.246;4.820;2023-08-17T00:33:07;24.10;66.80
14142;DHT22;7151;52.246;4.820;2023-08-17T00:35:32;24.10;66.70
14142;DHT22;7151;52.246;4.820;2023-08-17T00:37:59;24.10;66.80
14142;DHT22;7151;52.246;4.820;2023-08-17T00:40:25;24.10;66.80
14142;DHT22;7151;52.246;4.820;2023-08-17T00:42:50;24.10;66.90
14142;DHT22;7151;52.246;4.820;2023-08-17T00:45:18;24.00;66.90
14142;DHT22;7151;52.246;4.820;2023-08-17T00:47:44;24.00;67.00
14142;DHT22;7151;52.246;4.820;2023-08-17T00:50:11;24.00;67.00
14142;DHT22;7151;52.246;4.820;2023-08-17T00:52:38;24.00;67.00
14142;DHT22;7151;52.246;4.820;2023-08-17T00:55:05;24.00;67.00
14142;DHT22;7151;52.246;4.820;2023-08-17T00:57:31;23.90;67.10
14142;DHT22;7151;52.246;4.820;2023-08-17T00:59:58;23.90;67.10
14142;DHT22;7151;52.246;4.820;2023-08-17T01:02:24;23.90;67.20
14142;DHT22;7151;52.246;4.820;2023-08-17T01:04:50;23.90;67.30
14142;DHT22;7151;52.246;4.820;2023-08-17T01:07:15;23.90;67.30
14142;DHT22;7151;52.246;4.820;2023-08-17T01:09:41;23.80;67.20
14142;DHT22;7151;52.246;4.820;2023-08-17T01:12:17;23.80;67.30
14142;DHT22;7151;52.246;4.820;2023-08-17T01:15:01;23.80;67.40
14142;DHT22;7151;52.246;4.820;2023-08-17T01:17:33;23.80;67.50
14142;DHT22;7151;52.246;4.820;2023-08-17T01:20:02;23.80;67.50
14142;DHT22;7151;52.246;4.820;2023-08-17T01:22:30;23.70;67.50
14142;DHT22;7151;52.246;4.820;2023-08-17T01:24:58;23.70;67.60
14142;DHT22;7151;52.246;4.820;2023-08-17T01:27:24;23.70;67.70
14142;DHT22;7151;52.246;4.820;2023-08-17T01:29:51;23.70;67.80
14142;DHT22;7151;52.246;4.820;2023-08-17T01:32:24;23.70;67.90
14142;DHT22;7151;52.246;4.820;2023-08-17T01:34:57;23.70;67.90
14142;DHT22;7151;52.246;4.820;2023-08-17T01:37:28;23.60;67.80
14142;DHT22;7151;52.246;4.820;2023-08-17T01:39:55;23.60;67.90
14142;DHT22;7151;52.246;4.820;2023-08-17T01:42:22;23.60;68.00
14142;DHT22;7151;52.246;4.820;2023-08-17T01:44:48;23.60;68.00
14142;DHT22;7151;52.246;4.820;2023-08-17T01:47:14;23.60;68.10
14142;DHT22;7151;52.246;4.820;2023-08-17T01:49:40;23.60;68.10
14142;DHT22;7151;52.246;4.820;2023-08-17T01:52:05;23.50;68.10
14142;DHT22;7151;52.246;4.820;2023-08-17T01:54:31;23.50;68.20
14142;DHT22;7151;52.246;4.820;2023-08-17T01:56:57;23.50;68.30
14142;DHT22;7151;52.246;4.820;2023-08-17T01:59:22;23.50;68.30
14142;DHT22;7151;52.246;4.820;2023-08-17T02:01:48;23.50;68.40
14142;DHT22;7151;52.246;4.820;2023-08-17T02:04:14;23.50;68.40
14142;DHT22;7151;52.246;4.820;2023-08-17T02:06:40;23.40;68.40
14142;DHT22;7151;52.246;4.820;2023-08-17T02:09:06;23.40;68.40
14142;DHT22;7151;52.246;4.820;2023-08-17T02:11:31;23.40;68.40
14142;DHT22;7151;52.246;4.820;2023-08-17T02:13:57;23.40;68.50
14142;DHT22;7151;52.246;4.820;2023-08-17T02:16:22;23.40;68.50
14142;DHT22;7151;52.246;4.820;2023-08-17T02:18:48;23.40;68.50
14142;DHT22;7151;52.246;4.820;2023-08-17T02:21:13;23.40;68.50
14142;DHT22;7151;52.246;4.820;2023-08-17T02:23:39;23.30;68.50
14142;DHT22;7151;52.246;4.820;2023-08-17T02:26:04;23.40;68.60
14142;DHT22;7151;52.246;4.820;2023-08-17T02:28:30;23.30;68.60
14142;DHT22;7151;52.246;4.820;2023-08-17T02:30:56;23.30;68.40
14142;DHT22;7151;52.246;4.820;2023-08-17T02:33:22;23.30;68.50
14142;DHT22;7151;52.246;4.820;2023-08-17T02:35:51;23.30;68.60
14142;DHT22;7151;52.246;4.820;2023-08-17T02:38:17;23.30;68.60
14142;DHT22;7151;52.246;4.820;2023-08-17T02:40:43;23.20;68.60
14142;DHT22;7151;52.246;4.820;2023-08-17T02:43:09;23.20;68.60
14142;DHT22;7151;52.246;4.820;2023-08-17T02:45:34;23.20;68.60
14142;DHT22;7151;52.246;4.820;2023-08-17T02:48:00;23.20;68.70
14142;DHT22;7151;52.246;4.820;2023-08-17T02:50:26;23.20;68.70
14142;DHT22;7151;52.246;4.820;2023-08-17T02:52:51;23.20;68.80
14142;DHT22;7151;52.246;4.820;2023-08-17T02:55:17;23.20;68.90
14142;DHT22;7151;52.246;4.820;2023-08-17T02:57:43;23.10;68.90
14142;DHT22;7151;52.246;4.820;2023-08-17T03:00:09;23.10;69.10
14142;DHT22;7151;52.246;4.820;2023-08-17T03:02:34;23.10;69.20
14142;DHT22;7151;52.246;4.820;2023-08-17T03:05:00;23.10;69.40
14142;DHT22;7151;52.246;4.820;2023-08-17T03:07:25;23.10;69.50
14142;DHT22;7151;52.246;4.820;2023-08-17T03:09:51;23.00;69.60
14142;DHT22;7151;52.246;4.820;2023-08-17T03:12:16;23.00;69.70
14142;DHT22;7151;52.246;4.820;2023-08-17T03:14:42;23.00;69.80
14142;DHT22;7151;52.246;4.820;2023-08-17T03:17:07;23.00;70.00
14142;DHT22;7151;52.246;4.820;2023-08-17T03:19:33;23.00;70.10
14142;DHT22;7151;52.246;4.820;2023-08-17T03:21:59;23.00;70.10
14142;DHT22;7151;52.246;4.820;2023-08-17T03:24:24;23.00;70.10
14142;DHT22;7151;52.246;4.820;2023-08-17T03:26:50;22.90;70.00
14142;DHT22;7151;52.246;4.820;2023-08-17T03:29:15;22.90;70.10
14142;DHT22;7151;52.246;4.820;2023-08-17T03:31:41;22.90;70.20
14142;DHT22;7151;52.246;4.820;2023-08-17T03:34:06;22.90;70.30
14142;DHT22;7151;52.246;4.820;2023-08-17T03:36:32;22.90;70.30
14142;DHT22;7151;52.246;4.820;2023-08-17T03:38:58;22.90;70.30
14142;DHT22;7151;52.246;4.820;2023-08-17T03:41:24;22.90;70.40
14142;DHT22;7151;52.246;4.820;2023-08-17T03:43:50;22.90;70.50
14142;DHT22;7151;52.246;4.820;2023-08-17T03:46:15;22.80;70.40
14142;DHT22;7151;52.246;4.820;2023-08-17T03:48:41;22.80;70.50
14142;DHT22;7151;52.246;4.820;2023-08-17T03:51:06;22.80;70.50
14142;DHT22;7151;52.246;4.820;2023-08-17T03:53:32;22.80;70.60
14142;DHT22;7151;52.246;4.820;2023-08-17T03:55:57;22.80;70.60
14142;DHT22;7151;52.246;4.820;2023-08-17T03:58:23;22.80;70.70
14142;DHT22;7151;52.246;4.820;2023-08-17T04:00:52;22.80;70.80
14142;DHT22;7151;52.246;4.820;2023-08-17T04:03:19;22.80;70.90
14142;DHT22;7151;52.246;4.820;2023-08-17T04:05:44;22.80;71.00
14142;DHT22;7151;52.246;4.820;2023-08-17T04:08:10;22.80;71.10
14142;DHT22;7151;52.246;4.820;2023-08-17T04:10:36;22.80;71.10
14142;DHT22;7151;52.246;4.820;2023-08-17T04:13:01;22.70;71.10
14142;DHT22;7151;52.246;4.820;2023-08-17T04:15:27;22.70;71.10
14142;DHT22;7151;52.246;4.820;2023-08-17T04:17:52;22.70;71.10
14142;DHT22;7151;52.246;4.820;2023-08-17T04:20:18;22.70;71.20
14142;DHT22;7151;52.246;4.820;2023-08-17T04:22:44;22.70;71.10
14142;DHT22;7151;52.246;4.820;2023-08-17T04:25:09;22.70;71.10
14142;DHT22;7151;52.246;4.820;2023-08-17T04:27:35;22.70;71.20
14142;DHT22;7151;52.246;4.820;2023-08-17T04:30:01;22.60;71.10
14142;DHT22;7151;52.246;4.820;2023-08-17T04:32:27;22.60;71.20
14142;DHT22;7151;52.246;4.820;2023-08-17T04:34:52;22.60;71.20
14142;DHT22;7151;52.246;4.820;2023-08-17T04:37:18;22.60;71.20
14142;DHT22;7151;52.246;4.820;2023-08-17T04:39:43;22.60;71.20
14142;DHT22;7151;52.246;4.820;2023-08-17T04:42:09;22.60;71.20
14142;DHT22;7151;52.246;4.820;2023-08-17T04:44:35;22.50;71.20
14142;DHT22;7151;52.246;4.820;2023-08-17T04:47:01;22.50;71.40
14142;DHT22;7151;52.246;4.820;2023-08-17T04:49:27;22.50;71.40
14142;DHT22;7151;52.246;4.820;2023-08-17T04:51:53;22.50;71.50
14142;DHT22;7151;52.246;4.820;2023-08-17T04:54:19;22.50;71.60
14142;DHT22;7151;52.246;4.820;2023-08-17T04:56:44;22.50;71.70
14142;DHT22;7151;52.246;4.820;2023-08-17T04:59:10;22.50;71.70
14142;DHT22;7151;52.246;4.820;2023-08-17T05:01:36;22.50;71.80
14142;DHT22;7151;52.246;4.820;2023-08-17T05:04:03;22.40;71.90
14142;DHT22;7151;52.246;4.820;2023-08-17T05:06:29;22.40;72.00
14142;DHT22;7151;52.246;4.820;2023-08-17T05:08:54;22.40;72.10
14142;DHT22;7151;52.246;4.820;2023-08-17T05:11:20;22.40;72.10
14142;DHT22;7151;52.246;4.820;2023-08-17T05:13:45;22.40;72.00
14142;DHT22;7151;52.246;4.820;2023-08-17T05:16:11;22.40;72.10
14142;DHT22;7151;52.246;4.820;2023-08-17T05:18:37;22.40;72.10
14142;DHT22;7151;52.246;4.820;2023-08-17T05:21:02;22.40;72.20
14142;DHT22;7151;52.246;4.820;2023-08-17T05:23:28;22.40;72.30
14142;DHT22;7151;52.246;4.820;2023-08-17T05:25:54;22.30;72.20
14142;DHT22;7151;52.246;4.820;2023-08-17T05:28:20;22.30;72.40
14142;DHT22;7151;52.246;4.820;2023-08-17T05:30:46;22.30;72.50
14142;DHT22;7151;52.246;4.820;2023-08-17T05:33:12;22.30;72.70
14142;DHT22;7151;52.246;4.820;2023-08-17T05:35:37;22.30;72.70
14142;DHT22;7151;52.246;4.820;2023-08-17T05:38:03;22.30;72.80
14142;DHT22;7151;52.246;4.820;2023-08-17T05:40:32;22.30;72.80
14142;DHT22;7151;52.246;4.820;2023-08-17T05:42:58;22.30;72.90
14142;DHT22;7151;52.246;4.820;2023-08-17T05:45:23;22.30;73.00
14142;DHT22;7151;52.246;4.820;2023-08-17T05:47:49;22.30;73.10
14142;DHT22;7151;52.246;4.820;2023-08-17T05:50:14;22.30;73.20
14142;DHT22;7151;52.246;4.820;2023-08-17T05:52:41;22.30;73.30
14142;DHT22;7151;52.246;4.820;2023-08-17T05:55:07;22.30;73.30
14142;DHT22;7151;52.246;4.820;2023-08-17T05:57:32;22.30;73.40
14142;DHT22;7151;52.246;4.820;2023-08-17T05:59:58;22.30;73.40
14142;DHT22;7151;52.246;4.820;2023-08-17T06:02:23;22.30;73.50
14142;DHT22;7151;52.246;4.820;2023-08-17T06:04:49;22.30;73.50
14142;DHT22;7151;52.246;4.820;2023-08-17T06:07:15;22.30;73.70
14142;DHT22;7151;52.246;4.820;2023-08-17T06:09:40;22.30;73.80
14142;DHT22;7151;52.246;4.820;2023-08-17T06:12:06;22.30;74.00
14142;DHT22;7151;52.246;4.820;2023-08-17T06:14:33;22.30;74.10
14142;DHT22;7151;52.246;4.820;2023-08-17T06:16:59;22.30;74.20
14142;DHT22;7151;52.246;4.820;2023-08-17T06:19:25;22.30;74.20
14142;DHT22;7151;52.246;4.820;2023-08-17T06:21:50;22.30;74.40
14142;DHT22;7151;52.246;4.820;2023-08-17T06:24:16;22.30;74.50
14142;DHT22;7151;52.246;4.820;2023-08-17T06:26:41;22.40;74.60
14142;DHT22;7151;52.246;4.820;2023-08-17T06:29:08;22.40;74.60
14142;DHT22;7151;52.246;4.820;2023-08-17T06:31:33;22.40;74.50
14142;DHT22;7151;52.246;4.820;2023-08-17T06:33:59;22.40;74.40
14142;DHT22;7151;52.246;4.820;2023-08-17T06:36:25;22.30;74.40
14142;DHT22;7151;52.246;4.820;2023-08-17T06:38:50;22.40;74.40
14142;DHT22;7151;52.246;4.820;2023-08-17T06:41:16;22.30;74.40
14142;DHT22;7151;52.246;4.820;2023-08-17T06:43:42;22.40;74.60
14142;DHT22;7151;52.246;4.820;2023-08-17T06:46:08;22.40;74.70
14142;DHT22;7151;52.246;4.820;2023-08-17T06:48:33;22.40;74.90
14142;DHT22;7151;52.246;4.820;2023-08-17T06:50:59;22.30;74.80
14142;DHT22;7151;52.246;4.820;2023-08-17T06:53:24;22.40;75.00
14142;DHT22;7151;52.246;4.820;2023-08-17T06:55:50;22.40;75.10
14142;DHT22;7151;52.246;4.820;2023-08-17T06:58:16;22.40;75.10
14142;DHT22;7151;52.246;4.820;2023-08-17T07:00:41;22.40;75.00
14142;DHT22;7151;52.246;4.820;2023-08-17T07:03:09;22.40;75.10
14142;DHT22;7151;52.246;4.820;2023-08-17T07:05:34;22.40;75.00
14142;DHT22;7151;52.246;4.820;2023-08-17T07:08:00;22.50;75.10
14142;DHT22;7151;52.246;4.820;2023-08-17T07:10:27;22.50;75.10
14142;DHT22;7151;52.246;4.820;2023-08-17T07:12:52;22.50;75.10
14142;DHT22;7151;52.246;4.820;2023-08-17T07:15:18;22.50;75.00
14142;DHT22;7151;52.246;4.820;2023-08-17T07:17:44;22.50;75.00
14142;DHT22;7151;52.246;4.820;2023-08-17T07:20:10;22.50;75.00
14142;DHT22;7151;52.246;4.820;2023-08-17T07:22:37;22.50;75.20
14142;DHT22;7151;52.246;4.820;2023-08-17T07:25:03;22.50;75.40
14142;DHT22;7151;52.246;4.820;2023-08-17T07:27:29;22.50;75.30
14142;DHT22;7151;52.246;4.820;2023-08-17T07:29:55;22.50;75.30
14142;DHT22;7151;52.246;4.820;2023-08-17T07:32:20;22.50;75.20
14142;DHT22;7151;52.246;4.820;2023-08-17T07:34:47;22.50;75.20
14142;DHT22;7151;52.246;4.820;2023-08-17T07:37:12;22.50;75.20
14142;DHT22;7151;52.246;4.820;2023-08-17T07:39:38;22.50;75.20
14142;DHT22;7151;52.246;4.820;2023-08-17T07:42:04;22.50;75.20
14142;DHT22;7151;52.246;4.820;2023-08-17T07:44:29;22.50;75.10
14142;DHT22;7151;52.246;4.820;2023-08-17T07:46:57;22.60;75.10
14142;DHT22;7151;52.246;4.820;2023-08-17T07:49:23;22.50;75.20
14142;DHT22;7151;52.246;4.820;2023-08-17T07:51:49;22.60;75.40
14142;DHT22;7151;52.246;4.820;2023-08-17T07:54:15;22.60;75.50
14142;DHT22;7151;52.246;4.820;2023-08-17T07:56:40;22.60;75.50
14142;DHT22;7151;52.246;4.820;2023-08-17T07:59:06;22.60;75.40
14142;DHT22;7151;52.246;4.820;2023-08-17T08:01:31;22.60;75.30
14142;DHT22;7151;52.246;4.820;2023-08-17T08:03:57;22.70;75.40
14142;DHT22;7151;52.246;4.820;2023-08-17T08:06:23;22.70;75.40
14142;DHT22;7151;52.246;4.820;2023-08-17T08:08:48;22.70;75.50
14142;DHT22;7151;52.246;4.820;2023-08-17T08:11:14;22.70;75.50
14142;DHT22;7151;52.246;4.820;2023-08-17T08:13:40;22.70;75.50
14142;DHT22;7151;52.246;4.820;2023-08-17T08:16:06;22.80;75.50
14142;DHT22;7151;52.246;4.820;2023-08-17T08:18:31;22.80;75.50
14142;DHT22;7151;52.246;4.820;2023-08-17T08:20:57;22.80;75.60
14142;DHT22;7151;52.246;4.820;2023-08-17T08:23:22;22.80;75.80
14142;DHT22;7151;52.246;4.820;2023-08-17T08:25:48;22.90;76.00
14142;DHT22;7151;52.246;4.820;2023-08-17T08:28:13;22.90;75.90
14142;DHT22;7151;52.246;4.820;2023-08-17T08:30:39;22.90;75.90
14142;DHT22;7151;52.246;4.820;2023-08-17T08:33:05;23.00;75.80
14142;DHT22;7151;52.246;4.820;2023-08-17T08:35:30;23.00;75.70
14142;DHT22;7151;52.246;4.820;2023-08-17T08:37:58;23.10;75.70
14142;DHT22;7151;52.246;4.820;2023-08-17T08:40:28;23.10;75.80
14142;DHT22;7151;52.246;4.820;2023-08-17T08:42:55;23.20;75.80
14142;DHT22;7151;52.246;4.820;2023-08-17T08:45:22;23.20;75.70
14142;DHT22;7151;52.246;4.820;2023-08-17T08:47:48;23.20;75.50
14142;DHT22;7151;52.246;4.820;2023-08-17T08:50:18;23.20;75.40
14142;DHT22;7151;52.246;4.820;2023-08-17T08:52:57;23.20;75.30
14142;DHT22;7151;52.246;4.820;2023-08-17T08:55:24;23.30;75.20
14142;DHT22;7151;52.246;4.820;2023-08-17T08:57:52;23.30;75.10
14142;DHT22;7151;52.246;4.820;2023-08-17T09:00:19;23.30;75.10
14142;DHT22;7151;52.246;4.820;2023-08-17T09:02:44;23.30;75.10
14142;DHT22;7151;52.246;4.820;2023-08-17T09:05:11;23.30;75.10
14142;DHT22;7151;52.246;4.820;2023-08-17T09:07:38;23.30;75.30
14142;DHT22;7151;52.246;4.820;2023-08-17T09:10:06;23.30;75.40
14142;DHT22;7151;52.246;4.820;2023-08-17T09:12:32;23.30;75.40
14142;DHT22;7151;52.246;4.820;2023-08-17T09:14:58;23.30;75.40
14142;DHT22;7151;52.246;4.820;2023-08-17T09:17:27;23.30;75.60
14142;DHT22;7151;52.246;4.820;2023-08-17T09:19:53;23.40;75.70
14142;DHT22;7151;52.246;4.820;2023-08-17T09:22:40;23.40;75.80
14142;DHT22;7151;52.246;4.820;2023-08-17T09:25:06;23.50;76.20
14142;DHT22;7151;52.246;4.820;2023-08-17T09:27:32;23.50;76.20
14142;DHT22;7151;52.246;4.820;2023-08-17T09:30:03;23.60;76.10
14142;DHT22;7151;52.246;4.820;2023-08-17T09:32:33;23.60;76.20
14142;DHT22;7151;52.246;4.820;2023-08-17T09:35:05;23.70;75.90
14142;DHT22;7151;52.246;4.820;2023-08-17T09:37:35;23.70;75.60
14142;DHT22;7151;52.246;4.820;2023-08-17T09:40:00;23.80;75.60
14142;DHT22;7151;52.246;4.820;2023-08-17T09:42:26;23.80;75.40
14142;DHT22;7151;52.246;4.820;2023-08-17T09:44:53;23.80;75.20
14142;DHT22;7151;52.246;4.820;2023-08-17T09:47:19;23.90;75.20
14142;DHT22;7151;52.246;4.820;2023-08-17T09:49:57;23.90;75.20
14142;DHT22;7151;52.246;4.820;2023-08-17T09:52:23;23.90;75.90
14142;DHT22;7151;52.246;4.820;2023-08-17T09:54:52;23.90;75.30
14142;DHT22;7151;52.246;4.820;2023-08-17T09:57:20;24.00;75.20
14142;DHT22;7151;52.246;4.820;2023-08-17T09:59:45;24.00;75.00
14142;DHT22;7151;52.246;4.820;2023-08-17T10:02:22;24.00;75.00
14142;DHT22;7151;52.246;4.820;2023-08-17T10:04:53;24.10;75.20
14142;DHT22;7151;52.246;4.820;2023-08-17T10:07:19;24.10;75.40
14142;DHT22;7151;52.246;4.820;2023-08-17T10:09:53;24.10;75.30
14142;DHT22;7151;52.246;4.820;2023-08-17T10:12:23;24.20;75.80
14142;DHT22;7151;52.246;4.820;2023-08-17T10:14:59;24.20;75.10
14142;DHT22;7151;52.246;4.820;2023-08-17T10:17:30;24.30;75.30
14142;DHT22;7151;52.246;4.820;2023-08-17T10:19:59;24.30;75.20
14142;DHT22;7151;52.246;4.820;2023-08-17T10:25:35;24.40;74.70
14142;DHT22;7151;52.246;4.820;2023-08-17T10:28:03;24.40;74.50
14142;DHT22;7151;52.246;4.820;2023-08-17T10:30:29;24.50;74.30
14142;DHT22;7151;52.246;4.820;2023-08-17T10:32:55;24.50;74.30
14142;DHT22;7151;52.246;4.820;2023-08-17T10:35:22;24.50;74.20
14142;DHT22;7151;52.246;4.820;2023-08-17T10:37:48;24.50;74.30
14142;DHT22;7151;52.246;4.820;2023-08-17T10:40:14;24.60;74.50
14142;DHT22;7151;52.246;4.820;2023-08-17T10:42:39;24.60;74.40
14142;DHT22;7151;52.246;4.820;2023-08-17T10:45:27;24.70;74.60
14142;DHT22;7151;52.246;4.820;2023-08-17T10:50:31;24.80;74.80
14142;DHT22;7151;52.246;4.820;2023-08-17T10:52:58;24.80;74.60
14142;DHT22;7151;52.246;4.820;2023-08-17T10:55:44;24.90;74.20
14142;DHT22;7151;52.246;4.820;2023-08-17T10:58:10;25.00;74.00
14142;DHT22;7151;52.246;4.820;2023-08-17T11:00:38;25.00;73.90
14142;DHT22;7151;52.246;4.820;2023-08-17T11:03:17;25.00;73.80
14142;DHT22;7151;52.246;4.820;2023-08-17T11:05:47;25.10;73.50
14142;DHT22;7151;52.246;4.820;2023-08-17T11:08:35;25.10;73.60
14142;DHT22;7151;52.246;4.820;2023-08-17T11:11:12;25.10;73.30
14142;DHT22;7151;52.246;4.820;2023-08-17T11:13:43;25.10;73.10
14142;DHT22;7151;52.246;4.820;2023-08-17T11:16:11;25.10;73.00
14142;DHT22;7151;52.246;4.820;2023-08-17T11:18:37;25.20;73.10
14142;DHT22;7151;52.246;4.820;2023-08-17T11:21:05;25.20;72.90
14142;DHT22;7151;52.246;4.820;2023-08-17T11:23:32;25.30;72.80
14142;DHT22;7151;52.246;4.820;2023-08-17T11:25:58;25.30;72.80
14142;DHT22;7151;52.246;4.820;2023-08-17T11:28:24;25.30;72.80
14142;DHT22;7151;52.246;4.820;2023-08-17T11:30:57;25.30;72.60
14142;DHT22;7151;52.246;4.820;2023-08-17T11:33:25;25.30;72.50
14142;DHT22;7151;52.246;4.820;2023-08-17T11:35:51;25.30;72.60
14142;DHT22;7151;52.246;4.820;2023-08-17T11:38:16;25.30;72.50
14142;DHT22;7151;52.246;4.820;2023-08-17T11:40:42;25.30;72.40
14142;DHT22;7151;52.246;4.820;2023-08-17T11:43:07;25.30;72.40
14142;DHT22;7151;52.246;4.820;2023-08-17T11:45:33;25.30;72.20
14142;DHT22;7151;52.246;4.820;2023-08-17T11:47:59;25.30;72.10
14142;DHT22;7151;52.246;4.820;2023-08-17T11:50:25;25.30;72.10
14142;DHT22;7151;52.246;4.820;2023-08-17T11:52:51;25.30;72.10
14142;DHT22;7151;52.246;4.820;2023-08-17T11:55:17;25.30;72.20
14142;DHT22;7151;52.246;4.820;2023-08-17T11:57:44;25.40;72.30
14142;DHT22;7151;52.246;4.820;2023-08-17T12:00:10;25.40;72.20
14142;DHT22;7151;52.246;4.820;2023-08-17T12:02:41;25.40;72.00
14142;DHT22;7151;52.246;4.820;2023-08-17T12:05:08;25.40;71.80
14142;DHT22;7151;52.246;4.820;2023-08-17T12:07:35;25.40;71.70
14142;DHT22;7151;52.246;4.820;2023-08-17T12:10:02;25.40;71.60
14142;DHT22;7151;52.246;4.820;2023-08-17T12:12:28;25.40;71.70
14142;DHT22;7151;52.246;4.820;2023-08-17T12:14:54;25.40;71.70
14142;DHT22;7151;52.246;4.820;2023-08-17T12:17:21;25.50;71.80
14142;DHT22;7151;52.246;4.820;2023-08-17T12:19:53;25.50;71.70
14142;DHT22;7151;52.246;4.820;2023-08-17T12:22:19;25.50;71.80
14142;DHT22;7151;52.246;4.820;2023-08-17T12:24:44;25.50;71.80
14142;DHT22;7151;52.246;4.820;2023-08-17T12:27:10;25.50;71.70
14142;DHT22;7151;52.246;4.820;2023-08-17T12:29:51;25.50;71.80
14142;DHT22;7151;52.246;4.820;2023-08-17T12:32:19;25.60;71.80
14142;DHT22;7151;52.246;4.820;2023-08-17T12:34:45;25.60;71.70
14142;DHT22;7151;52.246;4.820;2023-08-17T12:37:12;25.60;71.60
14142;DHT22;7151;52.246;4.820;2023-08-17T12:39:38;25.60;71.60
14142;DHT22;7151;52.246;4.820;2023-08-17T12:42:04;25.70;71.70
14142;DHT22;7151;52.246;4.820;2023-08-17T12:44:30;25.70;71.60
14142;DHT22;7151;52.246;4.820;2023-08-17T12:46:56;25.70;71.50
14142;DHT22;7151;52.246;4.820;2023-08-17T12:49:23;25.70;71.50
14142;DHT22;7151;52.246;4.820;2023-08-17T12:51:49;25.70;71.50
14142;DHT22;7151;52.246;4.820;2023-08-17T12:54:14;25.70;71.50
14142;DHT22;7151;52.246;4.820;2023-08-17T12:56:40;25.70;71.50
14142;DHT22;7151;52.246;4.820;2023-08-17T12:59:05;25.70;71.40
14142;DHT22;7151;52.246;4.820;2023-08-17T13:01:31;25.70;71.50
14142;DHT22;7151;52.246;4.820;2023-08-17T13:03:56;25.80;71.60
14142;DHT22;7151;52.246;4.820;2023-08-17T13:06:22;25.80;71.40
14142;DHT22;7151;52.246;4.820;2023-08-17T13:08:48;25.80;71.30
14142;DHT22;7151;52.246;4.820;2023-08-17T13:11:13;25.80;71.40
14142;DHT22;7151;52.246;4.820;2023-08-17T13:13:39;25.80;71.40
14142;DHT22;7151;52.246;4.820;2023-08-17T13:16:04;25.80;71.30
14142;DHT22;7151;52.246;4.820;2023-08-17T13:18:30;25.80;71.20
14142;DHT22;7151;52.246;4.820;2023-08-17T13:20:56;25.90;71.00
14142;DHT22;7151;52.246;4.820;2023-08-17T13:23:21;25.90;70.80
14142;DHT22;7151;52.246;4.820;2023-08-17T13:25:47;25.90;70.60
14142;DHT22;7151;52.246;4.820;2023-08-17T13:28:13;25.90;70.50
14142;DHT22;7151;52.246;4.820;2023-08-17T13:30:38;25.80;70.30
14142;DHT22;7151;52.246;4.820;2023-08-17T13:33:05;25.80;70.20
14142;DHT22;7151;52.246;4.820;2023-08-17T13:35:35;25.80;70.10
14142;DHT22;7151;52.246;4.820;2023-08-17T13:38:00;25.80;70.20
14142;DHT22;7151;52.246;4.820;2023-08-17T13:40:30;25.80;70.30
14142;DHT22;7151;52.246;4.820;2023-08-17T13:42:55;25.80;70.40
14142;DHT22;7151;52.246;4.820;2023-08-17T13:45:21;25.80;70.40
14142;DHT22;7151;52.246;4.820;2023-08-17T13:47:47;25.80;70.50
14142;DHT22;7151;52.246;4.820;2023-08-17T13:50:12;25.80;70.60
14142;DHT22;7151;52.246;4.820;2023-08-17T13:52:38;25.80;70.60
14142;DHT22;7151;52.246;4.820;2023-08-17T13:55:04;25.80;70.60
14142;DHT22;7151;52.246;4.820;2023-08-17T13:57:29;25.80;70.70
14142;DHT22;7151;52.246;4.820;2023-08-17T13:59:55;25.80;70.70
14142;DHT22;7151;52.246;4.820;2023-08-17T14:02:20;25.80;70.60
14142;DHT22;7151;52.246;4.820;2023-08-17T14:04:46;25.80;70.60
14142;DHT22;7151;52.246;4.820;2023-08-17T14:07:12;25.80;70.50
14142;DHT22;7151;52.246;4.820;2023-08-17T14:09:37;25.80;70.40
14142;DHT22;7151;52.246;4.820;2023-08-17T14:12:03;25.80;70.40
14142;DHT22;7151;52.246;4.820;2023-08-17T14:14:30;25.80;70.40
14142;DHT22;7151;52.246;4.820;2023-08-17T14:16:56;25.80;70.50
14142;DHT22;7151;52.246;4.820;2023-08-17T14:19:22;25.80;70.40
14142;DHT22;7151;52.246;4.820;2023-08-17T14:21:48;25.80;70.30
14142;DHT22;7151;52.246;4.820;2023-08-17T14:24:13;25.70;70.20
14142;DHT22;7151;52.246;4.820;2023-08-17T14:26:39;25.70;70.30
14142;DHT22;7151;52.246;4.820;2023-08-17T14:29:05;25.70;70.30
14142;DHT22;7151;52.246;4.820;2023-08-17T14:31:31;25.70;70.50
14142;DHT22;7151;52.246;4.820;2023-08-17T14:33:56;25.70;70.50
14142;DHT22;7151;52.246;4.820;2023-08-17T14:36:22;25.70;70.40
14142;DHT22;7151;52.246;4.820;2023-08-17T14:38:47;25.70;70.40
14142;DHT22;7151;52.246;4.820;2023-08-17T14:41:13;25.70;70.50
14142;DHT22;7151;52.246;4.820;2023-08-17T14:43:38;25.60;70.40
14142;DHT22;7151;52.246;4.820;2023-08-17T14:46:04;25.70;70.60
14142;DHT22;7151;52.246;4.820;2023-08-17T14:48:30;25.60;70.70
14142;DHT22;7151;52.246;4.820;2023-08-17T14:50:55;25.60;70.70
14142;DHT22;7151;52.246;4.820;2023-08-17T14:53:21;25.60;70.70
14142;DHT22;7151;52.246;4.820;2023-08-17T14:55:47;25.60;70.70
14142;DHT22;7151;52.246;4.820;2023-08-17T14:58:12;25.60;70.60
14142;DHT22;7151;52.246;4.820;2023-08-17T15:00:39;25.50;70.60
14142;DHT22;7151;52.246;4.820;2023-08-17T15:03:04;25.60;70.70
14142;DHT22;7151;52.246;4.820;2023-08-17T15:05:30;25.60;70.80
14142;DHT22;7151;52.246;4.820;2023-08-17T15:07:56;25.60;70.80
14142;DHT22;7151;52.246;4.820;2023-08-17T15:10:22;25.50;70.80
14142;DHT22;7151;52.246;4.820;2023-08-17T15:12:48;25.50;70.90
14142;DHT22;7151;52.246;4.820;2023-08-17T15:15:14;25.50;71.00
14142;DHT22;7151;52.246;4.820;2023-08-17T15:17:40;25.50;71.20
14142;DHT22;7151;52.246;4.820;2023-08-17T15:20:06;25.60;71.30
14142;DHT22;7151;52.246;4.820;2023-08-17T15:22:32;25.60;71.50
14142;DHT22;7151;52.246;4.820;2023-08-17T15:24:57;25.60;71.50
14142;DHT22;7151;52.246;4.820;2023-08-17T15:27:23;25.60;71.50
14142;DHT22;7151;52.246;4.820;2023-08-17T15:29:48;25.60;71.50
14142;DHT22;7151;52.246;4.820;2023-08-17T15:32:14;25.60;71.50
14142;DHT22;7151;52.246;4.820;2023-08-17T15:34:40;25.60;71.30
14142;DHT22;7151;52.246;4.820;2023-08-17T15:37:06;25.60;71.00
14142;DHT22;7151;52.246;4.820;2023-08-17T15:39:32;25.60;70.80
14142;DHT22;7151;52.246;4.820;2023-08-17T15:41:58;25.60;70.70
14142;DHT22;7151;52.246;4.820;2023-08-17T15:44:24;25.60;70.60
14142;DHT22;7151;52.246;4.820;2023-08-17T15:46:50;25.60;70.60